createdAt,value
2022-10-22T00:04:10.883Z,22.93
2022-10-22T00:19:17.994Z,19.27
2022-10-22T00:34:59.746Z,18.10
2022-10-22T01:06:29.755Z,15.90
2022-10-22T01:37:27.540Z,21.87
2022-10-22T01:53:20.228Z,17.77
2022-10-22T02:25:14.062Z,19.17
2022-10-22T02:40:56.055Z,20.00
2022-10-22T03:44:05.805Z,22.80
2022-10-22T04:15:39.789Z,23.73
2022-10-22T04:47:30.114Z,31.03
2022-10-22T05:02:35.242Z,22.03
2022-10-22T05:17:40.736Z,23.67
2022-10-22T05:32:49.117Z,22.53
2022-10-22T05:47:53.631Z,30.33
2022-10-22T06:02:58.616Z,33.40
2022-10-22T06:18:03.050Z,28.93
2022-10-22T06:33:08.197Z,27.80
2022-10-22T06:48:12.507Z,31.63
2022-10-22T07:03:17.164Z,23.97
2022-10-22T07:18:23.070Z,25.20
2022-10-22T07:33:28.158Z,29.40
2022-10-22T07:48:32.665Z,23.63
2022-10-22T08:03:37.830Z,28.07
2022-10-22T08:18:42.977Z,24.47
2022-10-22T08:33:47.451Z,21.60
2022-10-22T08:48:56.190Z,17.20
2022-10-22T09:04:29.865Z,23.87
2022-10-22T09:19:53.169Z,24.30
2022-10-22T09:34:59.349Z,26.80
2022-10-22T09:50:14.626Z,24.60
2022-10-22T10:05:26.151Z,29.10
2022-10-22T10:20:34.374Z,22.63
2022-10-22T10:36:03.715Z,23.47
2022-10-22T10:51:30.391Z,24.50
2022-10-22T11:06:36.862Z,23.10
2022-10-22T11:22:02.322Z,20.53
2022-10-22T11:37:17.127Z,20.30
2022-10-22T11:52:33.007Z,20.67
2022-10-22T12:07:59.233Z,20.03
2022-10-22T12:23:11.909Z,16.63
2022-10-22T12:38:23.517Z,16.77
2022-10-22T12:53:36.307Z,16.93
2022-10-22T13:09:14.872Z,15.60
2022-10-22T13:24:30.609Z,17.70
2022-10-22T13:39:52.610Z,13.50
2022-10-22T13:55:24.287Z,13.27
2022-10-22T14:10:48.615Z,15.17
2022-10-22T14:26:27.904Z,14.37
2022-10-22T14:41:53.918Z,19.07
2022-10-22T14:57:11.517Z,19.60
2022-10-22T15:12:24.199Z,16.70
2022-10-22T15:27:34.465Z,21.73
2022-10-22T15:42:42.485Z,25.80
2022-10-22T15:58:04.399Z,22.60
2022-10-22T16:29:16.689Z,21.73
2022-10-22T17:00:28.931Z,19.07
2022-10-22T17:15:37.727Z,23.43
2022-10-22T17:30:52.358Z,24.47
2022-10-22T17:46:11.137Z,24.10
2022-10-22T18:01:40.653Z,22.57
2022-10-22T18:16:46.685Z,31.07
2022-10-22T18:31:53.214Z,35.37
2022-10-22T18:47:04.002Z,34.33
2022-10-22T19:02:13.495Z,35.10
2022-10-22T19:17:23.546Z,31.90
2022-10-22T19:32:30.857Z,30.63
2022-10-22T19:47:36.454Z,22.67
2022-10-22T20:02:55.577Z,22.43
2022-10-22T20:18:03.931Z,27.60
2022-10-22T20:33:22.665Z,25.37
2022-10-22T20:49:23.014Z,28.10
2022-10-22T21:04:36.355Z,25.17
2022-10-22T21:19:50.923Z,24.80
2022-10-22T21:35:09.931Z,22.43
2022-10-22T21:50:28.583Z,21.60
2022-10-22T22:05:37.995Z,20.83
2022-10-22T22:20:43.118Z,22.67
2022-10-22T22:35:51.662Z,16.80
2022-10-22T22:50:56.558Z,23.47
2022-10-22T23:06:05.215Z,23.60
2022-10-22T23:21:19.896Z,24.00
2022-10-22T23:36:34.617Z,21.87
2022-10-22T23:51:45.390Z,27.30
